Chihuahua, México

10:00 AM MDT en Agosto 31, 2016 (GMT -0600)
Gen Div P A Roberto Fierro | | Change Station

Alt 4462 ft 28.70 °N, 105.96 °W | Updated 18 minutes ago

Overcast
Nublado
66 ° F
Sensación térmica 66 ° F
N
0
Viento Variable Viento desde Norte

Hoy
Alta -- | Baja -- ° F
--% Posibilidad de precipitaciones
Ayer
Alta -- | Baja -- ° F
Precip. -- pul
Presión 30.22 pul
Visibilidad 7.0 Millas
Nubes Baja 600 ft
Muy nublado 2000 ft
Muy nublado 3000 ft
Nublado 8000 ft
Punto de rocío 64 ° F
Humedad 94%
Precipitaciones 0.00 pul
Espesor de la nieve No disponible.
6:41 AM 7:25 PM
Creciente menguante, 1% visible
METAR MMCU 311542Z 00000KT 7SM FEW006 BKN020 BKN030 OVC080 19/18 A3022 RMK 8/57/ RA INTTE VCFG S
Presión 30.22 pul
Visibilidad 7.0 Millas
Nubes Baja 600 ft
Muy nublado 2000 ft
Muy nublado 3000 ft
Nublado 8000 ft
Punto de rocío 64 ° F
Humedad 94%
Precipitaciones 0.00 pul
Espesor de la nieve No disponible.
6:41 AM 7:25 PM
Creciente menguante, 1% visible
METAR MMCU 311542Z 00000KT 7SM FEW006 BKN020 BKN030 OVC080 19/18 A3022 RMK 8/57/ RA INTTE VCFG S

10-Day Weather Forecast

No radar image for this location.
×

Almanac

Astronomía

Aug. 31, 2016 Salida Puesta
Hora real
Crepúsculo civil
Crepúsculo náutico
Crepúsculo astronómico
Luna
Horas de luz
Horas de luz
Tomorrow will be .
, % of the Moon is Illuminated

Extremos de hoy

Máximos del país Bajas del país

Community

WunderPhotos

Upload Photos

1,936,098 ¡fotos cargadas!

WunderBlog® & News

Nearby

Calidad del aire

  Calidad del aire Índice AQ Contaminante
Not available.

Grosos de nieve

Estación Profundido Altura

Actividad de terremotos

Ciudad Distance Mag. Tiempo y dato
Magnitud mínima muestra es 2,5.

Temperaturas de aguas costeras

Lugar Temperatura

Stations

Estaciones meteorológicas cercanas

Ubicación de la estación Temp. Vientos helados Punto de rocío Humedad Viento Precip. Alt Actualizado Tipo